sensor_id;sensor_type;location;lat;lon;timestamp;pressure;altitude;pressure_sealevel;temperature;humidity
9423;BME280;65863;49.506;10.400;2023-02-28T00:02:32;98882.03;;;-4.46;83.65
9423;BME280;65863;49.506;10.400;2023-02-28T00:05:18;98902.06;;;-4.33;83.63
9423;BME280;65863;49.506;10.400;2023-02-28T00:08:03;98894.88;;;-4.43;83.71
9423;BME280;65863;49.506;10.400;2023-02-28T00:10:47;98903.22;;;-4.46;83.63
9423;BME280;65863;49.506;10.400;2023-02-28T00:13:32;98863.22;;;-4.77;83.54
9423;BME280;65863;49.506;10.400;2023-02-28T00:16:20;98886.94;;;-4.70;83.90
9423;BME280;65863;49.506;10.400;2023-02-28T00:19:04;98896.78;;;-4.56;84.06
9423;BME280;65863;49.506;10.400;2023-02-28T00:21:48;98880.06;;;-4.78;83.75
9423;BME280;65863;49.506;10.400;2023-02-28T00:24:33;98902.31;;;-4.76;83.83
9423;BME280;65863;49.506;10.400;2023-02-28T00:27:17;98881.78;;;-4.85;83.84
9423;BME280;65863;49.506;10.400;2023-02-28T00:30:01;98902.25;;;-4.73;84.06
9423;BME280;65863;49.506;10.400;2023-02-28T00:32:47;98903.81;;;-4.72;84.24
9423;BME280;65863;49.506;10.400;2023-02-28T00:35:32;98872.69;;;-4.98;83.89
9423;BME280;65863;49.506;10.400;2023-02-28T00:38:16;98878.78;;;-4.90;84.11
9423;BME280;65863;49.506;10.400;2023-02-28T00:41:00;98868.84;;;-5.01;84.19
9423;BME280;65863;49.506;10.400;2023-02-28T00:43:48;98860.19;;;-5.15;84.22
9423;BME280;65863;49.506;10.400;2023-02-28T00:46:32;98880.31;;;-5.06;84.30
9423;BME280;65863;49.506;10.400;2023-02-28T00:49:16;98877.31;;;-5.11;84.46
9423;BME280;65863;49.506;10.400;2023-02-28T00:52:00;98903.34;;;-4.87;84.51
9423;BME280;65863;49.506;10.400;2023-02-28T00:54:44;98891.44;;;-4.96;84.59
9423;BME280;65863;49.506;10.400;2023-02-28T00:57:27;98910.00;;;-4.88;84.77
9423;BME280;65863;49.506;10.400;2023-02-28T01:00:12;98806.38;;;-5.59;84.36
9423;BME280;65863;49.506;10.400;2023-02-28T01:02:56;98902.66;;;-4.91;84.70
9423;BME280;65863;49.506;10.400;2023-02-28T01:05:40;98894.28;;;-5.00;84.72
9423;BME280;65863;49.506;10.400;2023-02-28T01:08:25;98884.66;;;-5.08;85.06
9423;BME280;65863;49.506;10.400;2023-02-28T01:11:11;98876.78;;;-5.06;85.08
9423;BME280;65863;49.506;10.400;2023-02-28T01:13:58;98887.25;;;-5.01;84.93
9423;BME280;65863;49.506;10.400;2023-02-28T01:16:42;98882.25;;;-5.06;85.07
9423;BME280;65863;49.506;10.400;2023-02-28T01:19:27;98859.97;;;-5.25;85.03
9423;BME280;65863;49.506;10.400;2023-02-28T01:22:11;98877.91;;;-5.20;85.10
9423;BME280;65863;49.506;10.400;2023-02-28T01:24:55;98857.22;;;-5.41;84.86
9423;BME280;65863;49.506;10.400;2023-02-28T01:27:39;98861.34;;;-5.33;84.90
9423;BME280;65863;49.506;10.400;2023-02-28T01:30:23;98870.34;;;-5.32;85.25
9423;BME280;65863;49.506;10.400;2023-02-28T01:33:07;98853.69;;;-5.42;85.02
9423;BME280;65863;49.506;10.400;2023-02-28T01:36:00;98855.94;;;-5.37;85.37
9423;BME280;65863;49.506;10.400;2023-02-28T01:38:47;98850.97;;;-5.42;85.36
9423;BME280;65863;49.506;10.400;2023-02-28T01:41:34;98879.69;;;-5.13;85.29
9423;BME280;65863;49.506;10.400;2023-02-28T01:47:41;98851.16;;;-5.32;85.23
9423;BME280;65863;49.506;10.400;2023-02-28T01:50:29;98881.22;;;-5.12;85.35
9423;BME280;65863;49.506;10.400;2023-02-28T01:53:20;98849.97;;;-5.31;85.15
9423;BME280;65863;49.506;10.400;2023-02-28T01:56:06;98864.59;;;-5.22;85.54
9423;BME280;65863;49.506;10.400;2023-02-28T01:58:53;98875.00;;;-5.13;85.38
9423;BME280;65863;49.506;10.400;2023-02-28T02:01:37;98834.13;;;-5.40;85.10
9423;BME280;65863;49.506;10.400;2023-02-28T02:04:23;98824.88;;;-5.46;85.09
9423;BME280;65863;49.506;10.400;2023-02-28T02:07:10;98810.16;;;-5.53;85.43
9423;BME280;65863;49.506;10.400;2023-02-28T02:10:11;98868.72;;;-5.13;85.30
9423;BME280;65863;49.506;10.400;2023-02-28T02:23:21;98858.94;;;-4.94;85.36
9423;BME280;65863;49.506;10.400;2023-02-28T02:32:54;98849.41;;;-4.90;85.42
9423;BME280;65863;49.506;10.400;2023-02-28T02:35:56;98851.47;;;-4.94;85.43
9423;BME280;65863;49.506;10.400;2023-02-28T02:38:56;98845.66;;;-4.96;85.30
9423;BME280;65863;49.506;10.400;2023-02-28T02:44:35;98812.69;;;-5.25;85.12
9423;BME280;65863;49.506;10.400;2023-02-28T02:47:24;98846.41;;;-4.95;85.30
9423;BME280;65863;49.506;10.400;2023-02-28T02:50:17;98812.59;;;-5.22;85.46
9423;BME280;65863;49.506;10.400;2023-02-28T02:53:06;98808.13;;;-5.32;85.01
9423;BME280;65863;49.506;10.400;2023-02-28T02:55:52;98816.88;;;-5.37;85.43
9423;BME280;65863;49.506;10.400;2023-02-28T02:58:41;98845.59;;;-5.29;84.95
9423;BME280;65863;49.506;10.400;2023-02-28T03:01:28;98814.69;;;-5.46;85.24
9423;BME280;65863;49.506;10.400;2023-02-28T03:04:18;98833.28;;;-5.37;85.34
9423;BME280;65863;49.506;10.400;2023-02-28T03:07:04;98816.13;;;-5.58;85.05
9423;BME280;65863;49.506;10.400;2023-02-28T03:09:53;98855.47;;;-5.31;85.23
9423;BME280;65863;49.506;10.400;2023-02-28T03:12:49;98817.94;;;-5.51;85.21
9423;BME280;65863;49.506;10.400;2023-02-28T03:16:07;98857.50;;;-5.36;85.19
9423;BME280;65863;49.506;10.400;2023-02-28T03:19:23;98868.94;;;-5.41;85.66
9423;BME280;65863;49.506;10.400;2023-02-28T03:22:31;98865.44;;;-5.41;85.68
9423;BME280;65863;49.506;10.400;2023-02-28T03:28:51;98840.00;;;-5.58;85.57
9423;BME280;65863;49.506;10.400;2023-02-28T03:31:39;98840.75;;;-5.58;86.04
9423;BME280;65863;49.506;10.400;2023-02-28T03:34:36;98859.97;;;-5.41;86.00
9423;BME280;65863;49.506;10.400;2023-02-28T03:37:23;98855.63;;;-5.39;85.83
9423;BME280;65863;49.506;10.400;2023-02-28T03:40:17;98831.50;;;-5.64;86.04
9423;BME280;65863;49.506;10.400;2023-02-28T03:43:10;98851.31;;;-5.40;86.05
9423;BME280;65863;49.506;10.400;2023-02-28T03:45:56;98864.50;;;-5.34;86.02
9423;BME280;65863;49.506;10.400;2023-02-28T03:48:48;98861.44;;;-5.37;85.99
9423;BME280;65863;49.506;10.400;2023-02-28T03:51:35;98786.44;;;-5.96;85.89
9423;BME280;65863;49.506;10.400;2023-02-28T03:54:35;98826.25;;;-5.75;86.00
9423;BME280;65863;49.506;10.400;2023-02-28T03:57:30;98829.13;;;-5.62;86.03
9423;BME280;65863;49.506;10.400;2023-02-28T04:00:20;98851.41;;;-5.43;86.00
9423;BME280;65863;49.506;10.400;2023-02-28T04:03:05;98866.13;;;-5.37;86.40
9423;BME280;65863;49.506;10.400;2023-02-28T04:05:54;98813.28;;;-5.71;86.36
9423;BME280;65863;49.506;10.400;2023-02-28T04:08:38;98830.44;;;-5.70;86.14
9423;BME280;65863;49.506;10.400;2023-02-28T04:11:44;98858.63;;;-5.53;86.47
9423;BME280;65863;49.506;10.400;2023-02-28T04:14:28;98832.09;;;-5.73;86.28
9423;BME280;65863;49.506;10.400;2023-02-28T04:17:12;98844.69;;;-5.59;86.16
9423;BME280;65863;49.506;10.400;2023-02-28T04:19:56;98860.94;;;-5.51;86.25
9423;BME280;65863;49.506;10.400;2023-02-28T04:22:41;98878.84;;;-5.47;86.34
9423;BME280;65863;49.506;10.400;2023-02-28T04:25:25;98879.97;;;-5.44;86.60
9423;BME280;65863;49.506;10.400;2023-02-28T04:28:09;98873.28;;;-5.43;86.16
9423;BME280;65863;49.506;10.400;2023-02-28T04:30:57;98855.78;;;-5.66;86.51
9423;BME280;65863;49.506;10.400;2023-02-28T04:33:42;98845.97;;;-5.83;86.55
9423;BME280;65863;49.506;10.400;2023-02-28T04:36:26;98847.53;;;-5.82;86.10
9423;BME280;65863;49.506;10.400;2023-02-28T04:39:10;98876.81;;;-5.63;86.43
9423;BME280;65863;49.506;10.400;2023-02-28T04:41:54;98873.88;;;-5.72;86.56
9423;BME280;65863;49.506;10.400;2023-02-28T04:44:39;98839.69;;;-6.00;86.34
9423;BME280;65863;49.506;10.400;2023-02-28T04:47:23;98880.97;;;-5.75;86.58
9423;BME280;65863;49.506;10.400;2023-02-28T04:50:07;98846.53;;;-5.92;86.69
9423;BME280;65863;49.506;10.400;2023-02-28T04:52:51;98861.81;;;-5.75;86.54
9423;BME280;65863;49.506;10.400;2023-02-28T04:55:35;98832.88;;;-5.92;86.86
9423;BME280;65863;49.506;10.400;2023-02-28T04:58:19;98830.25;;;-5.79;86.80
9423;BME280;65863;49.506;10.400;2023-02-28T05:01:17;98818.78;;;-5.91;86.65
9423;BME280;65863;49.506;10.400;2023-02-28T05:04:03;98873.53;;;-5.54;86.74
9423;BME280;65863;49.506;10.400;2023-02-28T05:06:47;98862.03;;;-5.65;86.84
9423;BME280;65863;49.506;10.400;2023-02-28T05:09:31;98855.06;;;-5.70;86.83
9423;BME280;65863;49.506;10.400;2023-02-28T05:12:16;98883.69;;;-5.55;86.87
9423;BME280;65863;49.506;10.400;2023-02-28T05:15:00;98844.97;;;-5.73;86.69
9423;BME280;65863;49.506;10.400;2023-02-28T05:17:46;98864.97;;;-5.56;87.00
9423;BME280;65863;49.506;10.400;2023-02-28T05:20:29;98855.56;;;-5.55;87.20
9423;BME280;65863;49.506;10.400;2023-02-28T05:23:14;98860.66;;;-5.37;87.22
9423;BME280;65863;49.506;10.400;2023-02-28T05:25:59;98854.06;;;-5.40;87.04
9423;BME280;65863;49.506;10.400;2023-02-28T05:28:43;98846.50;;;-5.52;87.07
9423;BME280;65863;49.506;10.400;2023-02-28T05:31:27;98860.03;;;-5.45;86.69
9423;BME280;65863;49.506;10.400;2023-02-28T05:34:11;98862.34;;;-5.43;86.96
9423;BME280;65863;49.506;10.400;2023-02-28T05:36:56;98870.22;;;-5.45;86.99
9423;BME280;65863;49.506;10.400;2023-02-28T05:39:40;98843.84;;;-5.56;86.89
9423;BME280;65863;49.506;10.400;2023-02-28T05:42:24;98848.13;;;-5.55;87.11
9423;BME280;65863;49.506;10.400;2023-02-28T05:45:10;98851.41;;;-5.43;86.65
9423;BME280;65863;49.506;10.400;2023-02-28T05:47:55;98887.09;;;-5.30;86.47
9423;BME280;65863;49.506;10.400;2023-02-28T05:50:39;98834.31;;;-5.67;86.82
9423;BME280;65863;49.506;10.400;2023-02-28T05:53:23;98863.19;;;-5.46;86.81
9423;BME280;65863;49.506;10.400;2023-02-28T05:56:07;98867.81;;;-5.43;86.70
9423;BME280;65863;49.506;10.400;2023-02-28T05:58:51;98863.56;;;-5.44;86.76
9423;BME280;65863;49.506;10.400;2023-02-28T06:01:38;98888.06;;;-5.21;86.49
9423;BME280;65863;49.506;10.400;2023-02-28T06:04:22;98890.78;;;-5.21;86.62
9423;BME280;65863;49.506;10.400;2023-02-28T06:07:07;98865.88;;;-5.26;86.42
9423;BME280;65863;49.506;10.400;2023-02-28T06:09:50;98864.22;;;-5.20;86.74
9423;BME280;65863;49.506;10.400;2023-02-28T06:12:34;98867.44;;;-5.25;86.44
9423;BME280;65863;49.506;10.400;2023-02-28T06:15:18;98857.06;;;-5.34;86.83
9423;BME280;65863;49.506;10.400;2023-02-28T06:18:04;98877.47;;;-5.19;86.44
9423;BME280;65863;49.506;10.400;2023-02-28T06:20:55;98914.41;;;-4.90;86.69
9423;BME280;65863;49.506;10.400;2023-02-28T06:23:39;98915.94;;;-4.89;86.47
9423;BME280;65863;49.506;10.400;2023-02-28T06:26:23;98890.19;;;-4.92;86.24
9423;BME280;65863;49.506;10.400;2023-02-28T06:29:08;98916.28;;;-4.71;86.67
9423;BME280;65863;49.506;10.400;2023-02-28T06:31:51;98884.53;;;-4.85;86.21
9423;BME280;65863;49.506;10.400;2023-02-28T06:34:35;98911.50;;;-4.67;86.19
9423;BME280;65863;49.506;10.400;2023-02-28T06:37:19;98871.00;;;-4.75;86.49
9423;BME280;65863;49.506;10.400;2023-02-28T06:40:04;98892.50;;;-4.57;86.24
9423;BME280;65863;49.506;10.400;2023-02-28T06:42:50;98902.50;;;-4.34;86.18
9423;BME280;65863;49.506;10.400;2023-02-28T06:45:34;98887.53;;;-4.46;85.93
9423;BME280;65863;49.506;10.400;2023-02-28T06:48:18;98878.53;;;-4.46;86.08
9423;BME280;65863;49.506;10.400;2023-02-28T06:51:20;98900.59;;;-4.21;86.01
9423;BME280;65863;49.506;10.400;2023-02-28T06:54:05;98871.31;;;-4.24;85.87
9423;BME280;65863;49.506;10.400;2023-02-28T06:56:52;98908.28;;;-3.99;85.74
9423;BME280;65863;49.506;10.400;2023-02-28T06:59:37;98895.13;;;-3.91;85.56
9423;BME280;65863;49.506;10.400;2023-02-28T07:02:21;98881.16;;;-3.97;85.19
9423;BME280;65863;49.506;10.400;2023-02-28T07:05:05;98892.19;;;-3.84;85.09
9423;BME280;65863;49.506;10.400;2023-02-28T07:07:49;98931.47;;;-3.58;85.29
9423;BME280;65863;49.506;10.400;2023-02-28T07:10:39;98929.97;;;-3.46;84.86
9423;BME280;65863;49.506;10.400;2023-02-28T07:13:24;98933.81;;;-3.43;84.81
9423;BME280;65863;49.506;10.400;2023-02-28T07:16:10;98930.44;;;-3.35;84.36
9423;BME280;65863;49.506;10.400;2023-02-28T07:18:54;98921.66;;;-3.42;84.06
9423;BME280;65863;49.506;10.400;2023-02-28T07:21:39;98893.72;;;-3.54;84.20
9423;BME280;65863;49.506;10.400;2023-02-28T07:24:23;98908.91;;;-3.36;83.55
9423;BME280;65863;49.506;10.400;2023-02-28T07:27:12;98904.44;;;-3.30;83.43
9423;BME280;65863;49.506;10.400;2023-02-28T07:29:56;98897.16;;;-3.37;83.33
9423;BME280;65863;49.506;10.400;2023-02-28T07:32:40;98901.47;;;-3.23;82.80
9423;BME280;65863;49.506;10.400;2023-02-28T07:35:24;98922.69;;;-3.11;82.68
9423;BME280;65863;49.506;10.400;2023-02-28T07:38:08;98913.25;;;-2.97;82.59
9423;BME280;65863;49.506;10.400;2023-02-28T07:40:52;98905.34;;;-2.82;82.17
9423;BME280;65863;49.506;10.400;2023-02-28T07:43:36;98855.22;;;-3.24;82.02
9423;BME280;65863;49.506;10.400;2023-02-28T07:46:20;98911.16;;;-2.67;81.54
9423;BME280;65863;49.506;10.400;2023-02-28T07:49:05;98904.44;;;-2.53;81.46
9423;BME280;65863;49.506;10.400;2023-02-28T07:51:49;98919.38;;;-2.54;80.93
9423;BME280;65863;49.506;10.400;2023-02-28T07:54:33;98925.41;;;-2.33;80.61
9423;BME280;65863;49.506;10.400;2023-02-28T07:57:17;98906.88;;;-2.20;80.41
9423;BME280;65863;49.506;10.400;2023-02-28T08:00:05;98930.25;;;-1.89;80.11
9423;BME280;65863;49.506;10.400;2023-02-28T08:02:55;98873.06;;;-2.08;79.45
9423;BME280;65863;49.506;10.400;2023-02-28T08:05:39;98934.00;;;-1.61;79.19
9423;BME280;65863;49.506;10.400;2023-02-28T08:08:25;98911.84;;;-1.80;78.33
9423;BME280;65863;49.506;10.400;2023-02-28T08:11:13;98931.13;;;-1.58;77.86
9423;BME280;65863;49.506;10.400;2023-02-28T08:13:57;98928.00;;;-1.47;77.85
9423;BME280;65863;49.506;10.400;2023-02-28T08:16:41;98907.50;;;-1.46;76.91
9423;BME280;65863;49.506;10.400;2023-02-28T08:19:27;98926.25;;;-1.31;76.69
9423;BME280;65863;49.506;10.400;2023-02-28T08:22:11;98929.47;;;-1.01;76.11
9423;BME280;65863;49.506;10.400;2023-02-28T08:24:55;98898.47;;;-1.15;75.56
9423;BME280;65863;49.506;10.400;2023-02-28T08:27:39;98907.91;;;-0.94;75.47
9423;BME280;65863;49.506;10.400;2023-02-28T08:30:23;98917.84;;;-0.65;75.09
9423;BME280;65863;49.506;10.400;2023-02-28T08:33:07;98922.91;;;-0.54;74.02
9423;BME280;65863;49.506;10.400;2023-02-28T08:35:55;98944.78;;;-0.28;73.29
9423;BME280;65863;49.506;10.400;2023-02-28T08:38:39;98919.66;;;-0.12;72.41
9423;BME280;65863;49.506;10.400;2023-02-28T08:41:23;98909.84;;;0.15;71.99
9423;BME280;65863;49.506;10.400;2023-02-28T08:44:07;98927.66;;;0.23;71.26
9423;BME280;65863;49.506;10.400;2023-02-28T08:46:51;98943.44;;;0.23;69.68
9423;BME280;65863;49.506;10.400;2023-02-28T08:49:36;98936.09;;;0.38;69.49
9423;BME280;65863;49.506;10.400;2023-02-28T08:52:21;98944.22;;;0.60;68.63
9423;BME280;65863;49.506;10.400;2023-02-28T08:55:05;98904.63;;;0.45;68.06
9423;BME280;65863;49.506;10.400;2023-02-28T08:57:49;98923.16;;;0.72;67.73
9423;BME280;65863;49.506;10.400;2023-02-28T09:00:33;98943.81;;;1.14;67.17
9423;BME280;65863;49.506;10.400;2023-02-28T09:03:17;98901.50;;;0.80;66.42
9423;BME280;65863;49.506;10.400;2023-02-28T09:06:02;98936.44;;;1.11;66.05
9423;BME280;65863;49.506;10.400;2023-02-28T09:08:46;98910.88;;;0.82;65.76
9423;BME280;65863;49.506;10.400;2023-02-28T09:11:30;98921.00;;;0.76;65.26
9423;BME280;65863;49.506;10.400;2023-02-28T09:14:14;98923.00;;;0.76;64.87
9423;BME280;65863;49.506;10.400;2023-02-28T09:16:58;98895.09;;;0.64;64.70
9423;BME280;65863;49.506;10.400;2023-02-28T09:19:42;98920.41;;;0.63;64.27
9423;BME280;65863;49.506;10.400;2023-02-28T09:22:26;98945.13;;;0.76;64.10
9423;BME280;65863;49.506;10.400;2023-02-28T09:25:10;98916.16;;;1.14;64.29
9423;BME280;65863;49.506;10.400;2023-02-28T09:27:54;98914.66;;;1.37;63.24
9423;BME280;65863;49.506;10.400;2023-02-28T09:30:38;98938.66;;;1.88;62.91
9423;BME280;65863;49.506;10.400;2023-02-28T09:33:22;98911.56;;;1.93;62.18
9423;BME280;65863;49.506;10.400;2023-02-28T09:36:06;98912.50;;;1.89;61.39
9423;BME280;65863;49.506;10.400;2023-02-28T09:38:50;98925.66;;;2.04;60.55
9423;BME280;65863;49.506;10.400;2023-02-28T09:41:43;98928.78;;;1.72;59.68
9423;BME280;65863;49.506;10.400;2023-02-28T09:44:37;98928.31;;;1.74;59.59
9423;BME280;65863;49.506;10.400;2023-02-28T09:53:27;98926.88;;;1.12;59.20
9423;BME280;65863;49.506;10.400;2023-02-28T09:56:19;98909.59;;;0.93;59.38
9423;BME280;65863;49.506;10.400;2023-02-28T10:01:58;98945.75;;;1.89;58.68
9423;BME280;65863;49.506;10.400;2023-02-28T10:04:56;98920.31;;;2.00;58.80
9423;BME280;65863;49.506;10.400;2023-02-28T10:13:35;98949.06;;;2.03;57.20
9423;BME280;65863;49.506;10.400;2023-02-28T10:16:25;98935.56;;;2.20;56.94
9423;BME280;65863;49.506;10.400;2023-02-28T10:19:18;98944.69;;;2.35;56.44
9423;BME280;65863;49.506;10.400;2023-02-28T10:22:24;98942.88;;;2.62;56.52
9423;BME280;65863;49.506;10.400;2023-02-28T10:25:37;98940.97;;;2.53;56.12
9423;BME280;65863;49.506;10.400;2023-02-28T10:28:22;98910.41;;;2.23;56.04
9423;BME280;65863;49.506;10.400;2023-02-28T10:31:17;98931.13;;;2.67;55.96
9423;BME280;65863;49.506;10.400;2023-02-28T10:34:01;98909.81;;;2.88;55.95
9423;BME280;65863;49.506;10.400;2023-02-28T10:36:48;98905.34;;;2.91;55.16
9423;BME280;65863;49.506;10.400;2023-02-28T10:42:28;98916.91;;;2.74;55.32
9423;BME280;65863;49.506;10.400;2023-02-28T10:45:16;98910.09;;;2.46;54.94
9423;BME280;65863;49.506;10.400;2023-02-28T10:53:47;98933.78;;;3.36;54.39
9423;BME280;65863;49.506;10.400;2023-02-28T10:56:32;98883.53;;;2.84;53.89
9423;BME280;65863;49.506;10.400;2023-02-28T10:59:26;98922.16;;;3.02;53.63
9423;BME280;65863;49.506;10.400;2023-02-28T11:02:33;98893.19;;;2.73;53.64
9423;BME280;65863;49.506;10.400;2023-02-28T11:05:35;98912.50;;;3.13;54.15
9423;BME280;65863;49.506;10.400;2023-02-28T11:08:20;98919.78;;;3.45;53.59
9423;BME280;65863;49.506;10.400;2023-02-28T11:11:05;98899.84;;;3.26;53.54
9423;BME280;65863;49.506;10.400;2023-02-28T11:13:53;98920.91;;;3.54;53.30
9423;BME280;65863;49.506;10.400;2023-02-28T11:16:38;98919.94;;;3.57;52.72
9423;BME280;65863;49.506;10.400;2023-02-28T11:19:27;98899.34;;;3.64;53.02
9423;BME280;65863;49.506;10.400;2023-02-28T11:22:18;98922.66;;;3.51;51.82
9423;BME280;65863;49.506;10.400;2023-02-28T11:25:09;98912.31;;;3.16;51.82
9423;BME280;65863;49.506;10.400;2023-02-28T11:27:57;98920.19;;;3.38;52.15
9423;BME280;65863;49.506;10.400;2023-02-28T11:30:44;98901.66;;;3.30;52.28
9423;BME280;65863;49.506;10.400;2023-02-28T11:33:32;98906.44;;;3.65;52.50
9423;BME280;65863;49.506;10.400;2023-02-28T11:36:26;98902.75;;;3.94;52.21
9423;BME280;65863;49.506;10.400;2023-02-28T11:39:19;98915.50;;;4.47;51.64
9423;BME280;65863;49.506;10.400;2023-02-28T11:45:14;98891.59;;;4.09;50.73
9423;BME280;65863;49.506;10.400;2023-02-28T11:48:08;98886.50;;;3.87;51.06
9423;BME280;65863;49.506;10.400;2023-02-28T11:51:20;98918.84;;;4.52;51.09
9423;BME280;65863;49.506;10.400;2023-02-28T12:01:01;98883.19;;;4.76;49.74
9423;BME280;65863;49.506;10.400;2023-02-28T12:07:35;98897.59;;;4.28;49.22
9423;BME280;65863;49.506;10.400;2023-02-28T12:10:28;98883.09;;;4.18;49.69
9423;BME280;65863;49.506;10.400;2023-02-28T12:13:21;98898.84;;;4.74;49.33
9423;BME280;65863;49.506;10.400;2023-02-28T12:16:35;98898.59;;;4.77;49.42
9423;BME280;65863;49.506;10.400;2023-02-28T12:19:32;98845.25;;;4.79;49.45
9423;BME280;65863;49.506;10.400;2023-02-28T12:22:31;98894.88;;;5.12;48.60
9423;BME280;65863;49.506;10.400;2023-02-28T12:28:28;98870.38;;;4.58;48.20
9423;BME280;65863;49.506;10.400;2023-02-28T12:31:23;98903.53;;;4.62;48.68
9423;BME280;65863;49.506;10.400;2023-02-28T12:34:13;98864.69;;;4.73;49.00
9423;BME280;65863;49.506;10.400;2023-02-28T12:37:02;98891.84;;;4.84;48.76
9423;BME280;65863;49.506;10.400;2023-02-28T12:39:51;98849.66;;;4.33;48.82
9423;BME280;65863;49.506;10.400;2023-02-28T12:42:51;98883.50;;;4.58;49.08
9423;BME280;65863;49.506;10.400;2023-02-28T12:45:43;98895.63;;;4.55;49.43
9423;BME280;65863;49.506;10.400;2023-02-28T12:48:37;98868.59;;;4.08;48.90
9423;BME280;65863;49.506;10.400;2023-02-28T12:51:25;98845.16;;;4.15;49.46
9423;BME280;65863;49.506;10.400;2023-02-28T12:54:30;98873.75;;;4.68;49.73
9423;BME280;65863;49.506;10.400;2023-02-28T12:57:34;98868.19;;;4.42;49.38
9423;BME280;65863;49.506;10.400;2023-02-28T13:00:23;98870.16;;;4.62;48.67
9423;BME280;65863;49.506;10.400;2023-02-28T13:06:05;98865.66;;;5.34;48.17
9423;BME280;65863;49.506;10.400;2023-02-28T13:11:46;98871.47;;;4.67;47.21
9423;BME280;65863;49.506;10.400;2023-02-28T13:17:20;98873.31;;;4.75;48.54
9423;BME280;65863;49.506;10.400;2023-02-28T13:20:15;98803.09;;;4.28;48.53
9423;BME280;65863;49.506;10.400;2023-02-28T13:22:59;98854.28;;;5.00;48.47
9423;BME280;65863;49.506;10.400;2023-02-28T13:28:57;98867.84;;;5.24;47.48
9423;BME280;65863;49.506;10.400;2023-02-28T13:37:42;98862.63;;;5.00;47.67
9423;BME280;65863;49.506;10.400;2023-02-28T13:40:32;98828.31;;;4.77;48.03
9423;BME280;65863;49.506;10.400;2023-02-28T13:49:33;98817.28;;;4.88;47.45
9423;BME280;65863;49.506;10.400;2023-02-28T13:52:20;98861.44;;;5.50;47.22
9423;BME280;65863;49.506;10.400;2023-02-28T13:55:14;98841.97;;;5.56;47.23
9423;BME280;65863;49.506;10.400;2023-02-28T13:58:51;98839.63;;;5.43;46.68
9423;BME280;65863;49.506;10.400;2023-02-28T14:01:48;98837.66;;;5.49;47.45
9423;BME280;65863;49.506;10.400;2023-02-28T14:04:46;98846.97;;;5.40;47.46
9423;BME280;65863;49.506;10.400;2023-02-28T14:07:43;98854.63;;;5.57;47.33
9423;BME280;65863;49.506;10.400;2023-02-28T14:10:31;98849.16;;;5.79;47.26
9423;BME280;65863;49.506;10.400;2023-02-28T14:16:13;98816.53;;;5.31;47.04
9423;BME280;65863;49.506;10.400;2023-02-28T14:19:00;98816.78;;;5.33;47.51
9423;BME280;65863;49.506;10.400;2023-02-28T14:31:05;98823.44;;;5.47;46.89
9423;BME280;65863;49.506;10.400;2023-02-28T14:36:48;98826.63;;;5.28;46.94
9423;BME280;65863;49.506;10.400;2023-02-28T14:39:32;98827.66;;;5.31;46.87
9423;BME280;65863;49.506;10.400;2023-02-28T14:42:37;98812.44;;;5.21;47.17
9423;BME280;65863;49.506;10.400;2023-02-28T14:45:31;98799.28;;;4.52;46.94
9423;BME280;65863;49.506;10.400;2023-02-28T14:48:16;98820.19;;;4.73;47.62
9423;BME280;65863;49.506;10.400;2023-02-28T14:51:01;98825.53;;;5.14;47.61
9423;BME280;65863;49.506;10.400;2023-02-28T14:53:48;98812.13;;;5.13;47.80
9423;BME280;65863;49.506;10.400;2023-02-28T14:56:37;98832.66;;;5.64;47.37
9423;BME280;65863;49.506;10.400;2023-02-28T14:59:26;98841.25;;;5.66;46.93
9423;BME280;65863;49.506;10.400;2023-02-28T15:02:25;98826.91;;;5.30;46.56
9423;BME280;65863;49.506;10.400;2023-02-28T15:11:13;98720.13;;;4.47;46.82
9423;BME280;65863;49.506;10.400;2023-02-28T15:13:58;98790.69;;;4.87;47.11
9423;BME280;65863;49.506;10.400;2023-02-28T15:16:46;98798.59;;;4.94;47.61
9423;BME280;65863;49.506;10.400;2023-02-28T15:19:34;98798.63;;;4.62;48.21
9423;BME280;65863;49.506;10.400;2023-02-28T15:22:28;98817.94;;;4.77;48.73
9423;BME280;65863;49.506;10.400;2023-02-28T15:25:19;98810.19;;;4.55;48.95
9423;BME280;65863;49.506;10.400;2023-02-28T15:28:03;98791.03;;;4.31;49.38
9423;BME280;65863;49.506;10.400;2023-02-28T15:30:56;98836.97;;;4.53;49.83
9423;BME280;65863;49.506;10.400;2023-02-28T15:33:55;98830.41;;;4.56;49.53
9423;BME280;65863;49.506;10.400;2023-02-28T15:36:40;98844.09;;;4.33;49.90
9423;BME280;65863;49.506;10.400;2023-02-28T15:39:26;98815.41;;;3.95;50.23
9423;BME280;65863;49.506;10.400;2023-02-28T15:42:13;98826.31;;;3.78;51.09
9423;BME280;65863;49.506;10.400;2023-02-28T15:45:00;98810.13;;;3.35;50.84
9423;BME280;65863;49.506;10.400;2023-02-28T15:47:45;98803.13;;;3.19;51.67
9423;BME280;65863;49.506;10.400;2023-02-28T15:50:29;98825.06;;;3.38;51.74
9423;BME280;65863;49.506;10.400;2023-02-28T15:53:17;98839.53;;;3.27;52.27
9423;BME280;65863;49.506;10.400;2023-02-28T15:57:01;98794.41;;;2.91;52.39
9423;BME280;65863;49.506;10.400;2023-02-28T15:59:21;98816.97;;;2.84;52.77
9423;BME280;65863;49.506;10.400;2023-02-28T16:02:21;98840.66;;;2.85;53.54
9423;BME280;65863;49.506;10.400;2023-02-28T16:07:50;98823.88;;;2.58;54.20
9423;BME280;65863;49.506;10.400;2023-02-28T16:10:34;98807.34;;;2.34;54.84
9423;BME280;65863;49.506;10.400;2023-02-28T16:13:18;98819.28;;;2.40;54.93
9423;BME280;65863;49.506;10.400;2023-02-28T16:16:01;98815.84;;;2.16;55.27
9423;BME280;65863;49.506;10.400;2023-02-28T16:18:46;98811.06;;;2.01;55.71
9423;BME280;65863;49.506;10.400;2023-02-28T16:21:30;98824.44;;;2.03;56.12
9423;BME280;65863;49.506;10.400;2023-02-28T16:24:14;98827.25;;;1.94;56.43
9423;BME280;65863;49.506;10.400;2023-02-28T16:26:59;98825.03;;;1.83;56.66
9423;BME280;65863;49.506;10.400;2023-02-28T16:29:44;98815.53;;;1.60;56.98
9423;BME280;65863;49.506;10.400;2023-02-28T16:32:29;98829.47;;;1.65;57.05
9423;BME280;65863;49.506;10.400;2023-02-28T16:35:13;98852.22;;;1.69;57.62
9423;BME280;65863;49.506;10.400;2023-02-28T16:37:58;98831.19;;;1.38;58.01
9423;BME280;65863;49.506;10.400;2023-02-28T16:40:42;98836.72;;;1.38;57.86
9423;BME280;65863;49.506;10.400;2023-02-28T16:43:26;98860.50;;;1.45;58.36
9423;BME280;65863;49.506;10.400;2023-02-28T16:46:11;98866.41;;;1.38;58.65
9423;BME280;65863;49.506;10.400;2023-02-28T16:48:57;98857.41;;;1.19;58.85
9423;BME280;65863;49.506;10.400;2023-02-28T16:51:41;98879.25;;;1.17;59.17